Rudnaja Pristan, Russia
Current Conditions -  °F | °C
As of 11:30 AM on Friday 28 Nov 2014 (Local Time) from UHWW Reporting Station
Overcast Overcast  
Wind Chill: 20°   Ceiling: 5000
Heat Index: 28°   Visibility: 6mi
Dew Point:   Wind: 9mph
Humidity: 43%   Direction: 320°NW
Pressure: 30.27"   Gusts: NA
Location:  44.36°N, 135.82°E
Report Text: UHWW 280130Z 32004MPS 9999 OVC050 M02/M13 Q1025 NOSIG RMKQFE767/1023 25CLRD70
Loading
Personal Weather Stations






























Interactive Weather Map New forecast layout! Learn more

10-Day Weather Forecast

Advertisements
Track Severe Weather on mobile